Time;durP1;ratioP1;P1;durP2;ratioP2;P2;SDS_P1;SDS_P2;PMS_P1;PMS_P2;Temp;Humidity;BMP_temperature;BMP_pressure;BME280_temperature;BME280_humidity;BME280_pressure;Samples;Min_cycle;Max_cycle;Signal;HPM_P1;HPM_P2
2022/07/28 00:02:10;;;;;;;3.55;1.75;;;;;;;;;;6245760;23;20008;-94
2022/07/28 00:04:36;;;;;;;5.20;2.05;;;;;;;;;;6219789;23;20008;-95
2022/07/28 00:07:02;;;;;;;7.38;2.95;;;;;;;;;;6219308;23;20058;-95
2022/07/28 00:09:28;;;;;;;6.55;1.98;;;;;;;;;;6217797;23;20011;-93
2022/07/28 00:11:54;;;;;;;3.80;1.58;;;;;;;;;;6218775;23;20004;-93
2022/07/28 00:14:20;;;;;;;3.55;1.83;;;;;;;;;;6219224;23;20014;-96
2022/07/28 00:16:46;;;;;;;6.82;1.98;;;;;;;;;;6219008;23;20000;-96
2022/07/28 00:19:12;;;;;;;5.90;2.00;;;;;;;;;;6217752;23;20008;-96
2022/07/28 00:21:38;;;;;;;4.45;2.00;;;;;;;;;;6222906;23;20010;-95
2022/07/28 00:24:04;;;;;;;4.13;2.00;;;;;;;;;;6219864;23;20407;-95
2022/07/28 00:26:30;;;;;;;5.72;1.70;;;;;;;;;;6218295;23;20421;-94
2022/07/28 00:28:57;;;;;;;3.95;2.30;;;;;;;;;;6219068;23;20011;-96
2022/07/28 00:31:23;;;;;;;3.25;1.80;;;;;;;;;;6217754;23;20004;-95
2022/07/28 00:33:49;;;;;;;7.93;2.20;;;;;;;;;;6217745;23;20004;-95
2022/07/28 00:36:15;;;;;;;7.30;2.58;;;;;;;;;;6217255;23;20006;-94
2022/07/28 00:38:41;;;;;;;3.20;1.77;;;;;;;;;;6218407;23;20004;-95
2022/07/28 00:41:10;;;;;;;3.33;2.40;;;;;;;;;;6216336;23;20008;-94
2022/07/28 00:43:47;;;;;;;5.85;1.90;;;;;;;;;;6218081;23;20018;-95
2022/07/28 00:46:14;;;;;;;5.53;1.83;;;;;;;;;;6207517;22;20333;-96
2022/07/28 00:48:45;;;;;;;5.57;2.15;;;;;;;;;;6188622;23;20077;-94
2022/07/28 00:51:11;;;;;;;6.63;1.95;;;;;;;;;;6188580;23;20005;-96
2022/07/28 00:53:38;;;;;;;4.18;2.10;;;;;;;;;;6188147;23;20004;-96
2022/07/28 00:56:04;;;;;;;3.05;2.03;;;;;;;;;;6188001;23;20005;-95
2022/07/28 00:58:30;;;;;;;6.60;2.10;;;;;;;;;;6188592;23;20004;-94
2022/07/28 01:00:57;;;;;;;6.43;2.25;;;;;;;;;;6188243;23;20012;-95
2022/07/28 01:03:23;;;;;;;9.35;2.25;;;;;;;;;;6188398;23;20004;-96
2022/07/28 01:05:54;;;;;;;3.40;1.92;;;;;;;;;;6187895;23;20032;-93
2022/07/28 01:08:27;;;;;;;5.10;2.13;;;;;;;;;;6188456;23;20445;-94
2022/07/28 01:11:01;;;;;;;6.43;2.08;;;;;;;;;;6187237;23;20013;-95
2022/07/28 01:13:39;;;;;;;9.32;2.00;;;;;;;;;;6186010;23;20009;-89
2022/07/28 01:16:07;;;;;;;4.32;2.13;;;;;;;;;;6185148;23;20007;-90
2022/07/28 01:18:34;;;;;;;8.88;2.55;;;;;;;;;;6184975;23;20059;-89
2022/07/28 01:21:00;;;;;;;3.70;1.90;;;;;;;;;;6186192;23;20015;-94
2022/07/28 01:23:46;;;;;;;7.35;2.00;;;;;;;;;;6185806;23;20008;-89
2022/07/28 01:26:12;;;;;;;6.63;2.33;;;;;;;;;;6183499;23;20013;-89
2022/07/28 01:28:45;;;;;;;7.47;2.10;;;;;;;;;;6185434;23;20032;-89
2022/07/28 01:31:14;;;;;;;6.05;2.03;;;;;;;;;;6185100;23;20373;-89
2022/07/28 01:33:47;;;;;;;5.53;2.10;;;;;;;;;;6184841;23;20004;-90
2022/07/28 01:36:20;;;;;;;3.10;1.85;;;;;;;;;;6185419;23;20392;-89
2022/07/28 01:38:47;;;;;;;3.83;1.85;;;;;;;;;;6184418;23;20392;-89
2022/07/28 01:41:15;;;;;;;8.27;2.25;;;;;;;;;;6182160;23;20008;-89
2022/07/28 01:43:43;;;;;;;6.53;2.13;;;;;;;;;;6185606;23;20005;-89
2022/07/28 01:46:10;;;;;;;4.53;2.20;;;;;;;;;;6188510;22;20016;-88
2022/07/28 01:48:39;;;;;;;2.25;1.80;;;;;;;;;;6211864;23;20530;-89
2022/07/28 01:51:07;;;;;;;4.57;2.15;;;;;;;;;;6185641;23;20017;-89
2022/07/28 01:53:34;;;;;;;5.63;1.90;;;;;;;;;;6211710;23;20629;-89
2022/07/28 01:56:03;;;;;;;7.00;2.30;;;;;;;;;;6184905;23;20005;-89
2022/07/28 01:58:30;;;;;;;5.63;2.33;;;;;;;;;;6211385;23;20035;-90
2022/07/28 02:00:56;;;;;;;4.47;1.90;;;;;;;;;;6186094;23;20008;-89
2022/07/28 02:03:23;;;;;;;7.13;2.10;;;;;;;;;;6184227;23;20067;-89
2022/07/28 02:05:50;;;;;;;6.53;2.40;;;;;;;;;;6211917;23;20366;-89
2022/07/28 02:08:17;;;;;;;6.03;3.22;;;;;;;;;;6184270;23;20341;-89
2022/07/28 02:11:38;;;;;;;10.07;4.30;;;;;;;;;;6184706;23;20453;-89
2022/07/28 02:13:32;;;;;;;5.10;2.63;;;;;;;;;;6210805;23;20017;-89
2022/07/28 02:15:59;;;;;;;6.40;2.60;;;;;;;;;;6185047;23;20341;-89
2022/07/28 02:18:25;;;;;;;6.35;2.78;;;;;;;;;;6186460;23;20008;-88
2022/07/28 02:20:52;;;;;;;5.20;2.45;;;;;;;;;;6185483;23;20032;-89
2022/07/28 02:23:18;;;;;;;3.88;2.28;;;;;;;;;;6184093;23;20087;-89
2022/07/28 02:25:45;;;;;;;3.90;2.35;;;;;;;;;;6183686;23;20009;-89
2022/07/28 02:28:12;;;;;;;9.18;2.30;;;;;;;;;;6182079;23;20451;-88
2022/07/28 02:30:41;;;;;;;9.02;2.67;;;;;;;;;;6183051;23;20091;-89
2022/07/28 02:33:17;;;;;;;6.80;2.88;;;;;;;;;;6182623;23;20429;-89
2022/07/28 02:35:52;;;;;;;5.47;2.85;;;;;;;;;;6209736;23;20203;-88
2022/07/28 02:38:25;;;;;;;4.85;2.28;;;;;;;;;;6182893;23;20001;-88
2022/07/28 02:40:54;;;;;;;5.85;2.33;;;;;;;;;;6207336;23;20325;-88
2022/07/28 02:43:23;;;;;;;4.57;2.60;;;;;;;;;;6182404;23;20005;-89
2022/07/28 02:45:52;;;;;;;5.28;2.28;;;;;;;;;;6190523;22;20023;-89
2022/07/28 02:48:21;;;;;;;5.60;2.35;;;;;;;;;;6212662;23;20016;-89
2022/07/28 02:50:47;;;;;;;4.25;2.22;;;;;;;;;;6212565;23;20095;-89
2022/07/28 02:53:13;;;;;;;8.05;2.50;;;;;;;;;;6213300;23;20012;-89
2022/07/28 02:55:40;;;;;;;8.52;2.67;;;;;;;;;;6238874;23;19996;-89
2022/07/28 02:58:13;;;;;;;8.02;1.95;;;;;;;;;;6213018;23;20429;-89
2022/07/28 03:00:40;;;;;;;4.25;2.28;;;;;;;;;;6212968;23;20344;-89
2022/07/28 03:03:06;;;;;;;6.07;2.40;;;;;;;;;;6213426;23;20061;-89
2022/07/28 03:05:35;;;;;;;3.80;2.15;;;;;;;;;;6213407;23;20008;-89
2022/07/28 03:08:01;;;;;;;6.68;2.00;;;;;;;;;;6213163;23;20004;-89
2022/07/28 03:10:27;;;;;;;5.45;2.58;;;;;;;;;;6212746;23;20522;-89
2022/07/28 03:12:55;;;;;;;7.35;2.58;;;;;;;;;;6213905;23;20040;-89
2022/07/28 03:15:22;;;;;;;4.03;1.90;;;;;;;;;;6214865;23;20371;-88
2022/07/28 03:17:48;;;;;;;3.92;2.17;;;;;;;;;;6216310;23;20340;-88
2022/07/28 03:20:14;;;;;;;3.90;1.85;;;;;;;;;;6216900;23;20560;-89
2022/07/28 03:22:40;;;;;;;5.97;2.20;;;;;;;;;;6217101;23;20043;-88
2022/07/28 03:25:25;;;;;;;3.65;2.00;;;;;;;;;;6216695;23;20039;-90
2022/07/28 03:27:51;;;;;;;5.72;2.30;;;;;;;;;;6224496;23;20035;-89
2022/07/28 03:30:24;;;;;;;4.40;2.33;;;;;;;;;;6224232;23;20455;-88
2022/07/28 03:32:52;;;;;;;8.55;2.22;;;;;;;;;;6220564;23;20338;-88
2022/07/28 03:35:18;;;;;;;6.80;2.13;;;;;;;;;;6218692;23;20534;-88
2022/07/28 03:38:03;;;;;;;5.55;2.70;;;;;;;;;;6219153;23;20004;-87
2022/07/28 03:40:31;;;;;;;4.43;2.33;;;;;;;;;;6215161;23;20004;-87
2022/07/28 03:42:57;;;;;;;6.93;2.28;;;;;;;;;;6217895;23;20487;-87
2022/07/28 03:45:24;;;;;;;6.47;2.88;;;;;;;;;;6217981;23;20008;-94
2022/07/28 03:47:51;;;;;;;3.97;2.40;;;;;;;;;;6223643;22;20020;-95
2022/07/28 03:50:17;;;;;;;2.83;1.98;;;;;;;;;;6223411;23;20012;-94
2022/07/28 03:52:43;;;;;;;3.85;2.00;;;;;;;;;;6222097;23;20332;-94
2022/07/28 03:55:11;;;;;;;3.63;1.98;;;;;;;;;;6217880;23;20309;-96
2022/07/28 03:57:37;;;;;;;4.43;2.47;;;;;;;;;;6218307;23;20008;-93
2022/07/28 04:00:03;;;;;;;4.72;2.00;;;;;;;;;;6218338;23;20004;-95
2022/07/28 04:02:29;;;;;;;7.43;1.80;;;;;;;;;;6217452;23;20033;-95
2022/07/28 04:04:55;;;;;;;3.78;1.77;;;;;;;;;;6217003;23;20004;-95
2022/07/28 04:07:21;;;;;;;5.25;1.90;;;;;;;;;;6217911;23;20004;-95
2022/07/28 04:09:47;;;;;;;4.43;2.13;;;;;;;;;;6217164;23;20011;-96
2022/07/28 04:12:13;;;;;;;6.25;3.08;;;;;;;;;;6218845;23;20004;-93
2022/07/28 04:14:40;;;;;;;7.03;2.10;;;;;;;;;;6218959;23;20008;-95
2022/07/28 04:17:06;;;;;;;3.08;2.05;;;;;;;;;;6218557;23;20004;-95
2022/07/28 04:19:32;;;;;;;4.32;1.77;;;;;;;;;;6216960;23;20044;-96
2022/07/28 04:21:58;;;;;;;4.25;1.63;;;;;;;;;;6217347;23;20000;-96
2022/07/28 04:24:24;;;;;;;8.48;2.40;;;;;;;;;;6215138;23;20008;-95
2022/07/28 04:26:50;;;;;;;4.22;2.17;;;;;;;;;;6217360;23;20012;-95
2022/07/28 04:29:16;;;;;;;4.93;2.35;;;;;;;;;;6216668;23;20329;-95
2022/07/28 04:31:42;;;;;;;6.68;2.15;;;;;;;;;;6217420;23;20019;-96
2022/07/28 04:34:08;;;;;;;7.30;3.67;;;;;;;;;;6215956;23;20004;-95
2022/07/28 04:36:40;;;;;;;6.22;2.88;;;;;;;;;;6216806;23;20007;-95
2022/07/28 04:39:07;;;;;;;26.02;13.02;;;;;;;;;;6214441;23;20010;-95
2022/07/28 04:41:33;;;;;;;12.13;6.13;;;;;;;;;;6215544;23;20451;-96
2022/07/28 04:43:59;;;;;;;11.82;3.83;;;;;;;;;;6243858;23;20024;-94
2022/07/28 04:46:26;;;;;;;5.10;2.55;;;;;;;;;;6217893;22;20524;-93
2022/07/28 04:48:52;;;;;;;6.10;2.40;;;;;;;;;;6217267;23;20011;-96
2022/07/28 04:51:18;;;;;;;6.28;1.95;;;;;;;;;;6217249;23;20008;-95
2022/07/28 04:53:46;;;;;;;10.77;2.35;;;;;;;;;;6216896;23;20039;-96
2022/07/28 04:56:12;;;;;;;4.72;1.90;;;;;;;;;;6216057;23;20007;-96
2022/07/28 04:58:38;;;;;;;5.07;2.10;;;;;;;;;;6216089;23;20088;-95
2022/07/28 05:01:04;;;;;;;3.05;2.13;;;;;;;;;;6215328;23;20004;-95
2022/07/28 05:03:30;;;;;;;4.20;2.03;;;;;;;;;;6243171;23;20000;-94
2022/07/28 05:05:56;;;;;;;8.43;1.80;;;;;;;;;;6217012;23;20008;-94
2022/07/28 05:08:23;;;;;;;8.30;2.63;;;;;;;;;;6217138;23;20008;-93
2022/07/28 05:10:56;;;;;;;5.75;1.90;;;;;;;;;;6215090;23;20012;-94
2022/07/28 05:13:22;;;;;;;5.47;2.13;;;;;;;;;;6216084;23;20229;-96
2022/07/28 05:15:48;;;;;;;5.57;1.85;;;;;;;;;;6215940;23;20019;-96
2022/07/28 05:18:14;;;;;;;18.30;2.35;;;;;;;;;;6216240;23;20035;-95
2022/07/28 05:20:40;;;;;;;10.27;2.33;;;;;;;;;;6215225;23;20004;-96
2022/07/28 05:23:07;;;;;;;6.32;1.92;;;;;;;;;;6216538;23;20012;-94
2022/07/28 05:25:33;;;;;;;6.47;2.45;;;;;;;;;;6215431;23;20041;-95
2022/07/28 05:27:59;;;;;;;7.80;2.50;;;;;;;;;;6242878;23;20000;-95
2022/07/28 05:30:25;;;;;;;3.13;1.90;;;;;;;;;;6215704;23;20452;-93
2022/07/28 05:32:53;;;;;;;7.32;2.22;;;;;;;;;;6215879;23;20043;-94
2022/07/28 05:35:19;;;;;;;9.85;2.45;;;;;;;;;;6215195;23;20007;-96
2022/07/28 05:37:45;;;;;;;8.02;2.20;;;;;;;;;;6216014;23;20007;-94
2022/07/28 05:40:12;;;;;;;11.05;2.28;;;;;;;;;;6213163;23;20697;-94
2022/07/28 05:42:39;;;;;;;4.68;2.10;;;;;;;;;;6215508;23;20008;-94
2022/07/28 05:45:07;;;;;;;11.55;2.42;;;;;;;;;;6214807;23;20019;-95
2022/07/28 05:48:00;;;;;;;12.82;2.35;;;;;;;;;;6243433;22;20024;-95
2022/07/28 05:50:33;;;;;;;8.07;2.22;;;;;;;;;;6214525;23;20066;-95
2022/07/28 05:52:59;;;;;;;6.38;2.03;;;;;;;;;;6215051;23;20542;-95
2022/07/28 05:55:25;;;;;;;6.00;1.40;;;;;;;;;;6214529;23;20284;-96
2022/07/28 05:57:52;;;;;;;6.20;1.90;;;;;;;;;;6215783;23;20000;-96
2022/07/28 06:00:19;;;;;;;9.10;1.95;;;;;;;;;;6215471;23;20004;-96
2022/07/28 06:02:47;;;;;;;12.80;2.60;;;;;;;;;;6215218;23;20097;-95
2022/07/28 06:05:14;;;;;;;13.70;2.83;;;;;;;;;;6215285;23;20392;-92
2022/07/28 06:07:40;;;;;;;21.52;3.92;;;;;;;;;;6215558;23;20090;-95
2022/07/28 06:10:06;;;;;;;13.15;6.80;;;;;;;;;;6215054;23;20435;-95
2022/07/28 06:12:38;;;;;;;16.15;7.63;;;;;;;;;;6215453;23;20322;-94
2022/07/28 06:15:04;;;;;;;13.00;6.88;;;;;;;;;;6215781;23;20004;-95
2022/07/28 06:17:30;;;;;;;12.63;6.90;;;;;;;;;;6214779;23;20000;-95
2022/07/28 06:19:56;;;;;;;21.02;7.50;;;;;;;;;;6216403;23;20011;-94
2022/07/28 06:22:23;;;;;;;18.30;8.70;;;;;;;;;;6216086;23;20091;-95
2022/07/28 06:24:49;;;;;;;16.65;8.25;;;;;;;;;;6215416;23;20455;-96
2022/07/28 06:27:15;;;;;;;22.38;9.88;;;;;;;;;;6216208;23;20072;-96
2022/07/28 06:29:41;;;;;;;16.67;8.82;;;;;;;;;;6216041;23;20079;-95
2022/07/28 06:32:07;;;;;;;15.05;8.70;;;;;;;;;;6215462;23;20000;-92
2022/07/28 06:34:33;;;;;;;19.13;8.50;;;;;;;;;;6214698;23;20443;-95
2022/07/28 06:36:59;;;;;;;13.38;7.13;;;;;;;;;;6215929;23;20054;-95
2022/07/28 06:39:25;;;;;;;12.77;5.82;;;;;;;;;;6213922;23;20011;-95
2022/07/28 06:41:51;;;;;;;6.10;3.63;;;;;;;;;;6215871;23;20086;-96
2022/07/28 06:44:17;;;;;;;10.27;4.53;;;;;;;;;;6190799;23;20046;-95
2022/07/28 06:46:43;;;;;;;16.13;4.53;;;;;;;;;;6216596;22;20012;-96
2022/07/28 06:49:09;;;;;;;9.32;3.92;;;;;;;;;;6216665;23;20004;-95
2022/07/28 06:51:35;;;;;;;8.95;4.40;;;;;;;;;;6217888;23;20008;-95
2022/07/28 06:54:01;;;;;;;8.63;4.93;;;;;;;;;;6217209;23;20008;-95
2022/07/28 06:56:27;;;;;;;11.82;5.00;;;;;;;;;;6217337;23;20039;-96
2022/07/28 06:58:53;;;;;;;13.63;6.13;;;;;;;;;;6217981;23;20062;-95
2022/07/28 07:01:19;;;;;;;13.48;5.65;;;;;;;;;;6243738;23;20075;-96
2022/07/28 07:03:45;;;;;;;9.98;3.97;;;;;;;;;;6218072;23;20069;-94
2022/07/28 07:06:11;;;;;;;9.45;2.92;;;;;;;;;;6217554;23;20011;-96
2022/07/28 07:08:37;;;;;;;5.30;2.80;;;;;;;;;;6218545;23;20018;-92
2022/07/28 07:11:03;;;;;;;5.63;2.40;;;;;;;;;;6216440;23;20395;-95
2022/07/28 07:13:30;;;;;;;6.13;2.50;;;;;;;;;;6243657;23;20027;-96
2022/07/28 07:15:56;;;;;;;5.20;2.17;;;;;;;;;;6217175;23;20024;-95
2022/07/28 07:18:22;;;;;;;6.30;2.60;;;;;;;;;;6218071;23;20008;-94
2022/07/28 07:20:48;;;;;;;6.25;2.72;;;;;;;;;;6217243;23;20000;-94
2022/07/28 07:23:14;;;;;;;6.93;2.63;;;;;;;;;;6217953;23;20384;-95
2022/07/28 07:25:40;;;;;;;8.18;2.72;;;;;;;;;;6217093;23;20015;-95
2022/07/28 07:28:06;;;;;;;9.55;2.67;;;;;;;;;;6218395;23;20051;-96
2022/07/28 07:30:32;;;;;;;4.47;2.30;;;;;;;;;;6218225;23;20004;-95
2022/07/28 07:32:58;;;;;;;8.57;2.10;;;;;;;;;;6218406;23;20008;-95
2022/07/28 07:35:24;;;;;;;5.53;2.30;;;;;;;;;;6219246;23;20529;-96
2022/07/28 07:37:50;;;;;;;5.20;2.63;;;;;;;;;;6219583;23;20031;-96
2022/07/28 07:40:16;;;;;;;4.47;2.10;;;;;;;;;;6218160;23;20007;-96
2022/07/28 07:42:42;;;;;;;5.90;2.15;;;;;;;;;;6221622;23;20318;-93
2022/07/28 07:45:09;;;;;;;6.95;2.13;;;;;;;;;;6231179;23;20019;-93
2022/07/28 07:47:35;;;;;;;5.18;2.03;;;;;;;;;;6236228;22;20020;-95
2022/07/28 07:50:01;;;;;;;4.07;2.25;;;;;;;;;;6234771;23;20004;-94
2022/07/28 07:52:27;;;;;;;5.28;1.77;;;;;;;;;;6231398;23;20034;-94
2022/07/28 07:54:53;;;;;;;3.63;1.85;;;;;;;;;;6232004;23;20425;-91
2022/07/28 07:57:19;;;;;;;6.15;2.42;;;;;;;;;;6243104;23;20024;-93
2022/07/28 07:59:45;;;;;;;6.38;2.42;;;;;;;;;;6234745;23;20260;-91
2022/07/28 08:02:11;;;;;;;6.38;2.47;;;;;;;;;;6242496;23;20012;-92
2022/07/28 08:04:37;;;;;;;9.55;2.33;;;;;;;;;;6242546;23;20062;-91
2022/07/28 08:07:03;;;;;;;4.28;2.00;;;;;;;;;;6242854;23;19985;-94
2022/07/28 08:09:29;;;;;;;4.68;2.20;;;;;;;;;;6222155;23;20019;-95
2022/07/28 08:11:55;;;;;;;4.40;1.80;;;;;;;;;;6220502;23;20008;-95
2022/07/28 08:14:21;;;;;;;8.57;2.30;;;;;;;;;;6219167;23;20014;-94
2022/07/28 08:16:47;;;;;;;4.35;1.70;;;;;;;;;;6217396;23;20078;-95
2022/07/28 08:19:13;;;;;;;5.57;2.60;;;;;;;;;;6217550;23;20004;-95
2022/07/28 08:21:39;;;;;;;3.05;1.58;;;;;;;;;;6217439;23;20004;-94
2022/07/28 08:24:05;;;;;;;3.15;1.33;;;;;;;;;;6217264;23;20016;-95
2022/07/28 08:26:31;;;;;;;4.85;1.48;;;;;;;;;;6216478;23;20011;-95
2022/07/28 08:28:57;;;;;;;3.72;1.27;;;;;;;;;;6217688;23;20427;-95
2022/07/28 08:31:24;;;;;;;3.15;1.10;;;;;;;;;;6216591;23;20004;-93
2022/07/28 08:33:50;;;;;;;3.63;1.73;;;;;;;;;;6217931;23;20394;-96
2022/07/28 08:36:16;;;;;;;2.85;1.15;;;;;;;;;;6218463;23;20012;-94
2022/07/28 08:38:42;;;;;;;1.67;0.90;;;;;;;;;;6219001;23;20000;-96
2022/07/28 08:41:12;;;;;;;3.72;1.10;;;;;;;;;;6215245;23;20000;-94
2022/07/28 08:43:41;;;;;;;2.10;1.00;;;;;;;;;;6217444;23;20005;-96
2022/07/28 08:46:08;;;;;;;2.72;0.95;;;;;;;;;;6217170;23;20008;-94
2022/07/28 08:48:42;;;;;;;1.63;0.73;;;;;;;;;;6218836;22;20046;-95
2022/07/28 08:51:15;;;;;;;4.03;0.98;;;;;;;;;;6216871;23;20012;-94
2022/07/28 08:53:42;;;;;;;3.88;1.13;;;;;;;;;;6216471;23;20081;-95
2022/07/28 08:56:10;;;;;;;4.55;1.05;;;;;;;;;;6216091;23;20361;-94
2022/07/28 08:58:37;;;;;;;3.72;1.15;;;;;;;;;;6216198;23;20543;-95
2022/07/28 09:01:04;;;;;;;1.80;1.30;;;;;;;;;;6216351;23;20004;-95
2022/07/28 09:03:30;;;;;;;2.50;1.30;;;;;;;;;;6216153;23;20015;-95
2022/07/28 09:05:56;;;;;;;2.65;1.08;;;;;;;;;;6216266;23;20455;-95
2022/07/28 09:08:23;;;;;;;6.85;1.23;;;;;;;;;;6216770;23;20008;-96
2022/07/28 09:10:50;;;;;;;8.63;1.30;;;;;;;;;;6215662;23;20016;-95
2022/07/28 09:13:17;;;;;;;2.70;1.67;;;;;;;;;;6216448;23;20035;-96
2022/07/28 09:15:45;;;;;;;4.00;1.20;;;;;;;;;;6216393;23;20496;-96
2022/07/28 09:18:12;;;;;;;4.72;1.45;;;;;;;;;;6216501;23;20083;-94
2022/07/28 09:20:39;;;;;;;4.47;1.42;;;;;;;;;;6215673;23;20086;-95
2022/07/28 09:23:05;;;;;;;1.88;1.50;;;;;;;;;;6217382;23;20114;-94
2022/07/28 09:25:32;;;;;;;4.88;1.60;;;;;;;;;;6216483;23;20486;-96
2022/07/28 09:28:15;;;;;;;6.40;1.60;;;;;;;;;;6217364;23;20016;-96
2022/07/28 09:30:42;;;;;;;5.63;1.20;;;;;;;;;;6217316;23;20083;-95
2022/07/28 09:33:18;;;;;;;5.72;1.48;;;;;;;;;;6216678;23;20373;-95
2022/07/28 09:35:45;;;;;;;4.10;1.98;;;;;;;;;;6217483;23;20008;-95
2022/07/28 09:38:12;;;;;;;2.67;1.50;;;;;;;;;;6217448;23;20007;-95
2022/07/28 09:40:38;;;;;;;2.72;1.35;;;;;;;;;;6215381;23;20001;-95
2022/07/28 09:43:05;;;;;;;3.92;1.60;;;;;;;;;;6217481;23;20133;-96
2022/07/28 09:45:31;;;;;;;5.60;1.80;;;;;;;;;;6217371;23;20012;-95
2022/07/28 09:48:10;;;;;;;2.88;1.30;;;;;;;;;;6218211;22;20019;-96
2022/07/28 09:50:37;;;;;;;6.25;1.33;;;;;;;;;;6217335;23;20360;-95
2022/07/28 09:53:22;;;;;;;1.25;0.70;;;;;;;;;;6216447;23;20011;-96
2022/07/28 09:55:59;;;;;;;1.65;0.85;;;;;;;;;;6215245;23;20460;-95
2022/07/28 09:58:26;;;;;;;1.40;0.98;;;;;;;;;;6216329;23;20007;-95
2022/07/28 10:01:02;;;;;;;3.10;0.80;;;;;;;;;;6216095;23;20015;-96
2022/07/28 10:03:28;;;;;;;5.43;0.85;;;;;;;;;;6216287;23;20092;-95
2022/07/28 10:05:57;;;;;;;3.80;1.00;;;;;;;;;;6215771;23;20019;-94
2022/07/28 10:08:42;;;;;;;1.67;0.80;;;;;;;;;;6215849;23;20004;-95
2022/07/28 10:11:08;;;;;;;2.53;1.10;;;;;;;;;;6215806;23;20035;-94
2022/07/28 10:13:35;;;;;;;2.53;0.95;;;;;;;;;;6215394;23;20008;-96
2022/07/28 10:16:11;;;;;;;1.70;0.90;;;;;;;;;;6215019;23;20008;-94
2022/07/28 10:18:40;;;;;;;3.08;1.75;;;;;;;;;;6214839;23;20000;-95
2022/07/28 10:21:12;;;;;;;1.27;1.17;;;;;;;;;;6215107;23;20015;-95
2022/07/28 10:23:38;;;;;;;2.80;1.13;;;;;;;;;;6214894;23;20062;-94
2022/07/28 10:26:11;;;;;;;3.75;0.88;;;;;;;;;;6214678;23;20035;-94
2022/07/28 10:28:38;;;;;;;1.35;1.00;;;;;;;;;;6215067;23;20008;-95
2022/07/28 10:31:04;;;;;;;4.05;1.17;;;;;;;;;;6215863;23;20012;-95
2022/07/28 10:33:31;;;;;;;1.70;0.98;;;;;;;;;;6215331;23;20047;-95
2022/07/28 10:35:57;;;;;;;2.33;1.33;;;;;;;;;;6214453;23;20008;-95
2022/07/28 10:38:28;;;;;;;4.32;1.30;;;;;;;;;;6214808;23;20453;-95
2022/07/28 10:40:55;;;;;;;2.42;1.15;;;;;;;;;;6213477;23;20004;-94
2022/07/28 10:43:22;;;;;;;1.70;0.93;;;;;;;;;;6214977;23;20016;-96
2022/07/28 10:45:48;;;;;;;2.35;1.25;;;;;;;;;;6215845;23;20035;-95
2022/07/28 10:48:29;;;;;;;0.88;0.88;;;;;;;;;;6217969;22;20328;-96
2022/07/28 10:51:02;;;;;;;7.10;1.00;;;;;;;;;;6215632;23;20039;-96
2022/07/28 10:53:34;;;;;;;0.90;0.73;;;;;;;;;;6214982;23;20066;-96
2022/07/28 10:56:02;;;;;;;3.28;1.30;;;;;;;;;;6214490;23;20297;-95
2022/07/28 10:58:38;;;;;;;1.63;0.82;;;;;;;;;;6215859;23;20374;-95
2022/07/28 11:01:04;;;;;;;2.38;0.90;;;;;;;;;;6217133;23;20000;-95
2022/07/28 11:03:42;;;;;;;3.97;1.20;;;;;;;;;;6215516;23;20157;-95
2022/07/28 11:06:27;;;;;;;3.90;1.30;;;;;;;;;;6216492;23;20035;-95
2022/07/28 11:08:58;;;;;;;2.53;1.13;;;;;;;;;;6215367;23;20047;-94
2022/07/28 11:11:43;;;;;;;0.80;0.75;;;;;;;;;;6215859;23;20008;-96
2022/07/28 11:14:24;;;;;;;1.45;0.80;;;;;;;;;;6215448;23;20087;-95
2022/07/28 11:16:59;;;;;;;5.47;1.08;;;;;;;;;;6216177;23;20005;-95
2022/07/28 11:19:50;;;;;;;2.55;1.10;;;;;;;;;;6215920;23;20004;-94
2022/07/28 11:22:23;;;;;;;4.95;1.30;;;;;;;;;;6217441;23;20525;-96
2022/07/28 11:24:59;;;;;;;2.17;0.80;;;;;;;;;;6215597;23;20054;-94
2022/07/28 11:27:50;;;;;;;3.10;0.90;;;;;;;;;;6215581;23;20079;-95
2022/07/28 11:30:16;;;;;;;6.07;1.98;;;;;;;;;;6216079;23;20019;-94
2022/07/28 11:32:54;;;;;;;1.83;0.90;;;;;;;;;;6217170;23;20008;-96
2022/07/28 11:35:24;;;;;;;7.85;1.33;;;;;;;;;;6216248;23;20083;-95
2022/07/28 11:38:02;;;;;;;4.25;0.88;;;;;;;;;;6218798;23;20008;-96
2022/07/28 11:40:38;;;;;;;2.72;0.90;;;;;;;;;;6216895;23;20486;-94
2022/07/28 11:43:23;;;;;;;3.92;1.20;;;;;;;;;;6218715;23;20039;-95
2022/07/28 11:46:09;;;;;;;2.55;0.98;;;;;;;;;;6219000;23;20008;-95
2022/07/28 11:48:35;;;;;;;1.48;0.68;;;;;;;;;;6218123;22;20347;-94
2022/07/28 11:51:04;;;;;;;4.35;1.00;;;;;;;;;;6218231;23;20004;-96
2022/07/28 11:53:36;;;;;;;1.08;0.75;;;;;;;;;;6218848;23;20455;-94
2022/07/28 11:56:07;;;;;;;2.33;1.02;;;;;;;;;;6219111;23;20470;-94
2022/07/28 11:58:33;;;;;;;11.00;1.35;;;;;;;;;;6220151;23;20035;-95
2022/07/28 12:01:15;;;;;;;1.40;0.82;;;;;;;;;;6221407;23;20000;-96
2022/07/28 12:03:42;;;;;;;3.17;1.00;;;;;;;;;;6222160;23;20042;-96
2022/07/28 12:06:09;;;;;;;1.92;0.90;;;;;;;;;;6231939;23;20382;-95
2022/07/28 12:08:55;;;;;;;2.38;1.10;;;;;;;;;;6232577;23;20004;-94
2022/07/28 12:11:25;;;;;;;4.13;1.20;;;;;;;;;;6231444;23;20008;-93
2022/07/28 12:14:01;;;;;;;0.95;0.80;;;;;;;;;;6232360;23;20401;-94
2022/07/28 12:16:28;;;;;;;2.88;1.08;;;;;;;;;;6235020;23;20008;-94
2022/07/28 12:18:54;;;;;;;4.75;1.20;;;;;;;;;;6243740;23;20043;-92
2022/07/28 12:21:35;;;;;;;2.22;1.00;;;;;;;;;;6264763;23;19988;-92
2022/07/28 12:24:01;;;;;;;2.38;0.80;;;;;;;;;;6243074;23;20037;-92
2022/07/28 12:26:34;;;;;;;2.38;1.02;;;;;;;;;;6243088;23;20004;-92
2022/07/28 12:29:01;;;;;;;2.97;1.17;;;;;;;;;;6241503;23;20012;-95
2022/07/28 12:31:34;;;;;;;5.22;1.20;;;;;;;;;;6223652;23;20083;-94
2022/07/28 12:34:01;;;;;;;3.15;1.17;;;;;;;;;;6249095;23;20376;-93
2022/07/28 12:36:28;;;;;;;4.00;1.15;;;;;;;;;;6220096;23;20437;-95
2022/07/28 12:38:54;;;;;;;4.53;1.10;;;;;;;;;;6217906;23;20482;-93
2022/07/28 12:41:21;;;;;;;1.73;1.20;;;;;;;;;;6217148;23;20004;-96
2022/07/28 12:43:51;;;;;;;4.75;1.33;;;;;;;;;;6217283;23;20515;-95
2022/07/28 12:46:24;;;;;;;2.78;1.50;;;;;;;;;;6217495;23;20008;-95
2022/07/28 12:48:56;;;;;;;3.25;1.63;;;;;;;;;;6220266;22;20024;-95
2022/07/28 12:51:29;;;;;;;5.00;1.85;;;;;;;;;;6217325;23;19992;-95
2022/07/28 12:53:55;;;;;;;2.63;1.65;;;;;;;;;;6217995;23;20019;-94
2022/07/28 12:56:21;;;;;;;2.92;1.40;;;;;;;;;;6216048;23;20004;-93
2022/07/28 12:58:55;;;;;;;1.67;1.13;;;;;;;;;;6216802;23;20061;-93
2022/07/28 13:01:21;;;;;;;3.47;1.20;;;;;;;;;;6216441;23;20008;-95
2022/07/28 13:03:47;;;;;;;3.63;1.23;;;;;;;;;;6215547;23;20011;-94
2022/07/28 13:06:14;;;;;;;5.20;1.55;;;;;;;;;;6217412;23;20012;-95
2022/07/28 13:08:42;;;;;;;2.10;0.85;;;;;;;;;;6217058;23;20032;-94
2022/07/28 13:11:09;;;;;;;4.07;1.30;;;;;;;;;;6215973;23;20015;-95
2022/07/28 13:13:55;;;;;;;2.95;1.20;;;;;;;;;;6217818;23;20008;-94
2022/07/28 13:16:23;;;;;;;6.15;1.30;;;;;;;;;;6217060;23;20028;-93
2022/07/28 13:18:52;;;;;;;2.75;1.00;;;;;;;;;;6217167;23;20058;-94
2022/07/28 13:21:41;;;;;;;3.28;1.05;;;;;;;;;;6216810;23;20439;-93
2022/07/28 13:24:09;;;;;;;1.33;0.85;;;;;;;;;;6216964;23;20012;-96
2022/07/28 13:26:35;;;;;;;2.63;1.23;;;;;;;;;;6216843;23;20259;-95
2022/07/28 13:29:02;;;;;;;2.17;1.00;;;;;;;;;;6217179;23;20463;-96
2022/07/28 13:31:28;;;;;;;4.90;1.48;;;;;;;;;;6216392;23;20584;-94
2022/07/28 13:33:54;;;;;;;2.65;0.88;;;;;;;;;;6217300;23;20344;-94
2022/07/28 13:36:20;;;;;;;2.42;0.98;;;;;;;;;;6216695;23;20011;-94
2022/07/28 13:38:46;;;;;;;2.10;1.20;;;;;;;;;;6218257;23;20518;-95
2022/07/28 13:41:12;;;;;;;1.73;1.08;;;;;;;;;;6214693;23;20004;-94
2022/07/28 13:43:38;;;;;;;4.45;1.38;;;;;;;;;;6217204;23;20075;-95
2022/07/28 13:46:04;;;;;;;4.65;1.33;;;;;;;;;;6217354;23;20384;-95
2022/07/28 13:48:39;;;;;;;4.72;1.02;;;;;;;;;;6217686;22;20022;-94
2022/07/28 13:51:12;;;;;;;4.45;1.02;;;;;;;;;;6216401;23;20389;-95
2022/07/28 13:53:39;;;;;;;3.65;1.15;;;;;;;;;;6216112;23;20035;-94
2022/07/28 13:56:05;;;;;;;1.70;1.05;;;;;;;;;;6215474;23;20019;-96
2022/07/28 13:58:32;;;;;;;1.60;0.95;;;;;;;;;;6215841;23;20000;-94
2022/07/28 14:00:58;;;;;;;4.57;1.20;;;;;;;;;;6215094;23;20399;-94
2022/07/28 14:03:24;;;;;;;3.25;1.73;;;;;;;;;;6216554;23;20008;-95
2022/07/28 14:05:50;;;;;;;8.10;1.33;;;;;;;;;;6216264;23;20394;-95
2022/07/28 14:08:20;;;;;;;6.13;0.80;;;;;;;;;;6216806;23;20026;-95
2022/07/28 14:10:50;;;;;;;1.48;0.77;;;;;;;;;;6215682;23;20035;-95
2022/07/28 14:13:17;;;;;;;1.90;1.15;;;;;;;;;;6216089;23;20447;-95
2022/07/28 14:15:44;;;;;;;4.15;1.17;;;;;;;;;;6215262;23;20039;-94
2022/07/28 14:18:10;;;;;;;5.43;1.02;;;;;;;;;;6216991;23;20004;-95
2022/07/28 14:20:39;;;;;;;2.42;0.98;;;;;;;;;;6215915;23;20081;-94
2022/07/28 14:23:05;;;;;;;4.13;1.00;;;;;;;;;;6216756;23;20004;-95
2022/07/28 14:25:31;;;;;;;2.15;1.17;;;;;;;;;;6215120;23;20004;-94
2022/07/28 14:27:58;;;;;;;2.95;0.77;;;;;;;;;;6216011;23;20016;-94
2022/07/28 14:30:24;;;;;;;2.65;1.23;;;;;;;;;;6216243;23;20456;-95
2022/07/28 14:32:51;;;;;;;3.85;1.10;;;;;;;;;;6216455;23;20011;-94
2022/07/28 14:35:18;;;;;;;2.95;1.00;;;;;;;;;;6216152;23;20088;-93
2022/07/28 14:37:44;;;;;;;1.70;1.00;;;;;;;;;;6216714;23;20062;-96
2022/07/28 14:40:11;;;;;;;3.45;0.90;;;;;;;;;;6213938;23;20012;-94
2022/07/28 14:42:37;;;;;;;1.83;1.00;;;;;;;;;;6215790;23;20008;-93
2022/07/28 14:45:04;;;;;;;2.95;1.08;;;;;;;;;;6215032;23;20433;-93
2022/07/28 14:47:31;;;;;;;1.55;0.75;;;;;;;;;;6215719;23;20012;-93
2022/07/28 14:49:57;;;;;;;1.13;0.75;;;;;;;;;;6200557;22;20031;-94